Time;durP1;ratioP1;P1;durP2;ratioP2;P2;SDS_P1;SDS_P2;PMS_P1;PMS_P2;Temp;Humidity;BMP_temperature;BMP_pressure;BME280_temperature;BME280_humidity;BME280_pressure;Samples;Min_cycle;Max_cycle;Signal;HPM_P1;HPM_P2
2022/02/28 00:00:47;;;;;;;9.13;6.00;;;;;;;-2.67;100.00;102858.25;2017964;29;20025;-59
2022/02/28 00:01:47;;;;;;;8.80;5.60;;;;;;;-2.68;100.00;102854.78;2017234;29;20172;-59
2022/02/28 00:02:49;;;;;;;11.33;5.23;;;;;;;-2.68;100.00;102854.78;2011003;29;20025;-59
2022/02/28 00:03:51;;;;;;;10.82;5.57;;;;;;;-2.66;100.00;102854.88;2010944;29;20089;-59
2022/02/28 00:04:52;;;;;;;10.05;4.88;;;;;;;-2.65;100.00;102852.38;2011032;29;20035;-59
2022/02/28 00:05:53;;;;;;;13.02;4.90;;;;;;;-2.56;100.00;102856.16;2017972;29;20052;-59
2022/02/28 00:06:53;;;;;;;9.45;5.55;;;;;;;-2.53;100.00;102851.19;2018124;29;20142;-59
2022/02/28 00:07:53;;;;;;;8.00;4.93;;;;;;;-2.51;100.00;102855.56;2010913;29;20105;-59
2022/02/28 00:08:54;;;;;;;8.40;5.53;;;;;;;-2.50;100.00;102856.44;2017947;29;20422;-59
2022/02/28 00:09:54;;;;;;;9.40;5.82;;;;;;;-2.50;100.00;102859.84;2017832;29;20031;-59
2022/02/28 00:10:54;;;;;;;9.57;6.13;;;;;;;-2.47;100.00;102866.78;2010904;29;20392;-59
2022/02/28 00:11:55;;;;;;;9.77;5.10;;;;;;;-2.44;100.00;102861.81;2010908;29;20030;-59
2022/02/28 00:12:55;;;;;;;9.77;4.80;;;;;;;-2.36;100.00;102850.22;2010872;29;20025;-59
2022/02/28 00:13:55;;;;;;;8.27;5.67;;;;;;;-2.33;100.00;102850.38;2010882;29;20526;-58
2022/02/28 00:14:56;;;;;;;15.20;6.80;;;;;;;-2.29;100.00;102847.94;2010859;29;20556;-58
2022/02/28 00:15:56;;;;;;;16.23;6.20;;;;;;;-2.17;100.00;102845.03;2010809;29;20147;-60
2022/02/28 00:16:56;;;;;;;11.13;5.47;;;;;;;-2.14;100.00;102846.06;2010911;29;20484;-56
2022/02/28 00:17:57;;;;;;;9.73;5.17;;;;;;;-2.19;100.00;102852.63;2010743;29;20033;-58
2022/02/28 00:18:57;;;;;;;9.20;5.40;;;;;;;-2.29;100.00;102843.69;2010819;29;20040;-59
2022/02/28 00:19:57;;;;;;;10.73;5.37;;;;;;;-2.37;100.00;102847.59;2010744;29;20186;-59
2022/02/28 00:20:58;;;;;;;8.87;5.03;;;;;;;-2.45;100.00;102852.41;2017663;29;20092;-59
2022/02/28 00:21:58;;;;;;;8.70;4.75;;;;;;;-2.51;100.00;102849.56;2017734;29;20029;-58
2022/02/28 00:22:58;;;;;;;9.77;4.87;;;;;;;-2.55;100.00;102861.34;2010764;29;20029;-58
2022/02/28 00:23:59;;;;;;;9.80;6.57;;;;;;;-2.54;100.00;102857.13;2017744;29;20033;-58
2022/02/28 00:25:00;;;;;;;11.13;5.45;;;;;;;-2.51;100.00;102852.09;2017827;29;20316;-58
2022/02/28 00:26:01;;;;;;;9.38;5.72;;;;;;;-2.44;100.00;102851.59;2010723;29;20498;-58
2022/02/28 00:27:02;;;;;;;8.43;4.78;;;;;;;-2.44;100.00;102843.06;2010777;29;20108;-59
2022/02/28 00:28:05;;;;;;;6.67;4.73;;;;;;;-2.41;100.00;102841.50;2010725;29;20116;-59
2022/02/28 00:29:05;;;;;;;10.02;5.68;;;;;;;-2.25;100.00;102847.28;2010782;29;20031;-59
2022/02/28 00:30:08;;;;;;;10.97;5.23;;;;;;;-2.10;100.00;102837.72;2010731;29;20168;-59
2022/02/28 00:31:09;;;;;;;12.75;5.82;;;;;;;-1.97;100.00;102836.53;2010689;29;20100;-59
2022/02/28 00:32:09;;;;;;;11.00;5.60;;;;;;;-1.85;100.00;102841.28;2017725;29;20424;-59
2022/02/28 00:33:09;;;;;;;9.70;5.47;;;;;;;-1.77;100.00;102840.72;2010039;29;20029;-59
2022/02/28 00:34:10;;;;;;;10.20;4.30;;;;;;;-1.87;100.00;102840.38;2010059;29;20032;-59
2022/02/28 00:35:10;;;;;;;7.27;4.80;;;;;;;-1.98;99.87;102846.72;2010736;29;20025;-59
2022/02/28 00:36:10;;;;;;;7.97;5.57;;;;;;;-2.05;100.00;102842.13;2010631;29;20100;-59
2022/02/28 00:37:11;;;;;;;8.83;5.23;;;;;;;-2.07;99.98;102840.41;2010672;29;20032;-58
2022/02/28 00:38:11;;;;;;;6.07;3.97;;;;;;;-2.05;100.00;102842.13;2010669;29;20036;-58
2022/02/28 00:39:11;;;;;;;10.03;5.03;;;;;;;-2.05;99.92;102845.59;2017677;29;20020;-56
2022/02/28 00:40:12;;;;;;;7.47;5.20;;;;;;;-2.05;100.00;102837.03;2017732;29;20104;-59
2022/02/28 00:41:14;;;;;;;9.38;5.13;;;;;;;-1.99;100.00;102830.47;2010598;29;20480;-59
2022/02/28 00:42:14;;;;;;;10.60;6.22;;;;;;;-1.92;100.00;102835.88;2010645;29;20036;-59
2022/02/28 00:43:15;;;;;;;8.67;5.40;;;;;;;-1.90;100.00;102837.66;2010666;29;20416;-59
2022/02/28 00:44:15;;;;;;;10.73;4.97;;;;;;;-1.87;99.15;102848.03;2010622;29;20442;-58
2022/02/28 00:45:15;;;;;;;7.97;4.37;;;;;;;-1.88;99.05;102838.59;2010598;29;20026;-59
2022/02/28 00:46:16;;;;;;;8.00;4.90;;;;;;;-1.79;99.02;102847.50;2010601;29;20053;-59
2022/02/28 00:47:16;;;;;;;10.77;5.60;;;;;;;-1.62;98.54;102841.38;2010669;29;20279;-59
2022/02/28 00:48:16;;;;;;;6.70;4.20;;;;;;;-1.61;97.38;102847.38;2010510;29;20158;-59
2022/02/28 00:49:16;;;;;;;11.63;4.30;;;;;;;-1.65;96.74;102848.91;2010655;29;20035;-59
2022/02/28 00:50:17;;;;;;;7.17;4.40;;;;;;;-1.65;96.71;102851.47;2010615;29;20033;-59
2022/02/28 00:51:17;;;;;;;7.47;4.63;;;;;;;-1.58;96.41;102857.72;2010669;29;20033;-59
2022/02/28 00:52:17;;;;;;;8.27;4.87;;;;;;;-1.57;96.15;102844.13;2010653;29;20491;-58
2022/02/28 00:53:18;;;;;;;7.67;3.97;;;;;;;-1.60;96.20;102852.56;2010667;29;20158;-59
2022/02/28 00:54:18;;;;;;;10.30;4.10;;;;;;;-1.58;96.31;102848.34;2010687;29;20022;-59
2022/02/28 00:55:18;;;;;;;10.53;4.30;;;;;;;-1.50;96.31;102850.34;2010603;29;20028;-60
2022/02/28 00:56:19;;;;;;;8.40;4.20;;;;;;;-1.36;96.25;102849.22;2010652;29;20033;-59
2022/02/28 00:57:19;;;;;;;8.70;5.13;;;;;;;-1.24;95.12;102850.50;2010241;29;20112;-60
2022/02/28 00:58:19;;;;;;;9.10;4.07;;;;;;;-1.09;93.90;102853.66;2010519;29;20081;-59
2022/02/28 00:59:19;;;;;;;9.23;4.57;;;;;;;-0.94;93.07;102852.50;2010806;29;20428;-60
2022/02/28 01:00:21;;;;;;;6.83;4.03;;;;;;;-0.86;91.97;102850.25;2010623;29;20109;-59
2022/02/28 01:01:21;;;;;;;;;;;;;;;-0.89;91.33;102845.00;2010947;29;20029;-59
2022/02/28 01:02:21;;;;;;;7.72;4.40;;;;;;;-0.96;91.17;102839.63;2010576;29;19912;-59
2022/02/28 01:03:22;;;;;;;6.78;4.38;;;;;;;-1.04;91.34;102836.78;2010605;29;20033;-59
2022/02/28 01:04:24;;;;;;;7.63;3.90;;;;;;;-1.07;91.45;102838.34;2010630;29;20188;-59
2022/02/28 01:05:24;;;;;;;5.60;3.53;;;;;;;-1.04;91.85;102847.03;2010572;29;20033;-59
2022/02/28 01:06:25;;;;;;;11.77;4.53;;;;;;;-0.93;91.25;102838.88;2010579;29;20108;-59
2022/02/28 01:07:25;;;;;;;8.52;4.32;;;;;;;-0.92;91.05;102838.94;2009925;29;20025;-60
2022/02/28 01:08:25;;;;;;;9.77;4.20;;;;;;;-0.91;90.60;102840.69;2010040;29;20088;-59
2022/02/28 01:09:26;;;;;;;8.37;4.87;;;;;;;-0.98;90.36;102840.41;2010604;29;20026;-60
2022/02/28 01:10:26;;;;;;;6.70;3.10;;;;;;;-1.10;90.65;102839.09;2010552;29;20029;-59
2022/02/28 01:11:26;;;;;;;6.80;3.53;;;;;;;-1.20;91.32;102840.44;2010509;29;20056;-59
2022/02/28 01:12:27;;;;;;;4.73;3.97;;;;;;;-1.25;91.54;102844.53;2010578;29;20158;-59
2022/02/28 01:13:27;;;;;;;6.67;4.03;;;;;;;-1.25;92.19;102841.06;2010541;29;20575;-59
2022/02/28 01:14:27;;;;;;;7.17;3.70;;;;;;;-1.25;92.82;102847.09;2010583;29;20092;-59
2022/02/28 01:15:27;;;;;;;8.07;4.00;;;;;;;-1.12;92.40;102845.88;2010540;29;20458;-59
2022/02/28 01:16:28;;;;;;;7.03;4.30;;;;;;;-0.97;91.41;102845.59;2010575;29;20033;-58
2022/02/28 01:17:28;;;;;;;6.10;4.57;;;;;;;-0.87;90.72;102836.56;2010520;29;20476;-59
2022/02/28 01:18:28;;;;;;;5.73;3.47;;;;;;;-0.88;90.05;102846.75;2010530;29;20036;-59
2022/02/28 01:19:29;;;;;;;7.93;4.13;;;;;;;-0.98;89.49;102846.41;2010556;29;20454;-59
2022/02/28 01:20:29;;;;;;;5.47;4.07;;;;;;;-1.09;89.77;102845.97;2010522;29;20475;-59
2022/02/28 01:21:29;;;;;;;8.53;3.63;;;;;;;-1.20;90.12;102847.28;2017456;29;20297;-60
2022/02/28 01:22:30;;;;;;;8.13;4.33;;;;;;;-1.30;90.78;102848.59;2017557;29;20112;-59
2022/02/28 01:23:30;;;;;;;6.00;3.87;;;;;;;-1.35;90.92;102835.59;2010569;29;20057;-59
2022/02/28 01:24:30;;;;;;;6.57;4.17;;;;;;;-1.42;91.48;102843.84;2010537;29;20029;-59
2022/02/28 01:25:30;;;;;;;8.50;4.87;;;;;;;-1.43;92.00;102847.22;2009885;29;20589;-59
2022/02/28 01:26:31;;;;;;;6.47;3.77;;;;;;;-1.45;92.36;102841.16;2009970;29;20026;-59
2022/02/28 01:27:31;;;;;;;7.67;3.43;;;;;;;-1.39;92.79;102841.41;2010499;29;20027;-59
2022/02/28 01:28:31;;;;;;;8.83;4.20;;;;;;;-1.35;92.66;102840.72;2010540;29;20029;-59
2022/02/28 01:29:32;;;;;;;7.97;4.53;;;;;;;-1.33;93.17;102836.53;2017555;29;20086;-59
2022/02/28 01:30:32;;;;;;;11.03;4.47;;;;;;;-1.31;92.76;102837.47;2017610;29;20025;-59
2022/02/28 01:31:32;;;;;;;6.10;3.40;;;;;;;-1.29;92.59;102837.53;2010573;29;20104;-59
2022/02/28 01:32:32;;;;;;;5.90;4.03;;;;;;;-1.33;92.33;102841.63;2010457;29;20099;-59
2022/02/28 01:33:33;;;;;;;7.47;3.93;;;;;;;-1.35;92.12;102840.72;2010465;29;20476;-58
2022/02/28 01:34:33;;;;;;;6.83;3.93;;;;;;;-1.41;91.95;102837.91;2010479;29;20029;-59
2022/02/28 01:35:33;;;;;;;7.03;3.87;;;;;;;-1.50;92.24;102845.22;2010453;29;20471;-59
2022/02/28 01:36:34;;;;;;;9.90;4.30;;;;;;;-1.58;92.22;102840.66;2010474;29;20504;-59
2022/02/28 01:37:34;;;;;;;8.37;4.10;;;;;;;-1.65;92.85;102836.09;2010509;29;20369;-59
2022/02/28 01:38:34;;;;;;;7.60;3.80;;;;;;;-1.74;92.76;102830.63;2010518;29;20116;-59
2022/02/28 01:39:35;;;;;;;6.27;3.50;;;;;;;-1.74;93.73;102838.31;2010497;29;20029;-59
2022/02/28 01:40:35;;;;;;;5.43;3.63;;;;;;;-1.66;94.12;102829.25;2010481;29;20036;-59
2022/02/28 01:41:36;;;;;;;4.45;3.22;;;;;;;-1.63;94.02;102824.25;2010413;29;20025;-59
2022/02/28 01:42:36;;;;;;;9.03;3.53;;;;;;;-1.63;93.82;102826.81;2010451;29;20108;-59
2022/02/28 01:43:37;;;;;;;7.73;3.80;;;;;;;-1.66;93.29;102838.59;2010511;29;20112;-59
2022/02/28 01:44:37;;;;;;;5.87;3.73;;;;;;;-1.76;93.13;102829.66;2010477;29;20029;-59
2022/02/28 01:45:37;;;;;;;7.23;4.30;;;;;;;-1.84;93.46;102821.69;2010499;29;20052;-58
2022/02/28 01:46:39;;;;;;;7.70;3.88;;;;;;;-1.92;94.16;102826.47;2010480;29;20070;-59
2022/02/28 01:47:39;;;;;;;6.25;3.47;;;;;;;-1.92;94.85;102826.47;2010451;29;20110;-58
2022/02/28 01:48:40;;;;;;;5.45;3.70;;;;;;;-1.96;94.91;102827.16;2010300;29;20072;-58
2022/02/28 01:49:41;;;;;;;5.40;3.67;;;;;;;-1.99;95.36;102827.06;2010456;29;20085;-58
2022/02/28 01:50:41;;;;;;;5.25;3.97;;;;;;;-2.05;95.14;102827.69;2010393;29;20583;-60
2022/02/28 01:51:42;;;;;;;6.83;3.17;;;;;;;-2.07;95.72;102827.59;2010483;29;20025;-58
2022/02/28 01:52:42;;;;;;;10.90;4.10;;;;;;;-2.00;96.15;102828.72;2010375;29;20053;-60
2022/02/28 01:53:42;;;;;;;7.30;3.27;;;;;;;-1.98;95.89;102832.22;2010466;29;20057;-59
2022/02/28 01:54:46;;;;;;;7.67;3.53;;;;;;;-1.96;96.15;102834.84;2010448;29;20022;-58
2022/02/28 01:55:46;;;;;;;6.45;3.33;;;;;;;-2.00;95.63;102833.84;2010444;29;20036;-59
2022/02/28 01:56:46;;;;;;;4.70;3.57;;;;;;;-1.98;95.89;102831.34;2010461;29;20054;-59
2022/02/28 01:57:48;;;;;;;5.00;2.97;;;;;;;-1.92;95.94;102830.75;2017439;29;20831;-58
2022/02/28 01:58:48;;;;;;;10.68;4.20;;;;;;;-1.91;95.92;102830.81;2017437;29;20093;-59
2022/02/28 01:59:49;;;;;;;6.63;3.80;;;;;;;-1.96;95.90;102829.72;2010331;29;20492;-58
2022/02/28 02:00:49;;;;;;;8.50;4.07;;;;;;;-1.98;95.47;102836.47;2010325;29;20073;-59
2022/02/28 02:01:49;;;;;;;8.17;3.93;;;;;;;-2.03;95.65;102837.94;2010422;29;20124;-59
2022/02/28 02:02:50;;;;;;;6.60;3.47;;;;;;;-2.12;95.10;102833.34;2010325;29;20043;-58
2022/02/28 02:03:50;;;;;;;6.33;4.17;;;;;;;-2.16;95.85;102841.69;2010389;29;20377;-59
2022/02/28 02:04:50;;;;;;;6.60;3.70;;;;;;;-2.15;96.25;102844.31;2010404;29;20030;-58
2022/02/28 02:05:51;;;;;;;7.30;3.90;;;;;;;-2.14;96.27;102840.94;2017376;29;20035;-58
2022/02/28 02:06:52;;;;;;;8.47;4.40;;;;;;;-2.18;96.47;102841.63;2017472;29;20129;-58
2022/02/28 02:07:53;;;;;;;7.60;4.07;;;;;;;-2.18;96.66;102839.06;2010395;29;20034;-58
2022/02/28 02:08:53;;;;;;;7.93;4.33;;;;;;;-2.21;96.19;102841.47;2010926;29;20057;-58
2022/02/28 02:09:54;;;;;;;6.67;3.33;;;;;;;-2.27;96.36;102836.97;2011902;29;20476;-58
2022/02/28 02:10:55;;;;;;;6.07;3.22;;;;;;;-2.34;96.69;102833.28;2011770;29;20033;-59
2022/02/28 02:11:56;;;;;;;5.95;3.90;;;;;;;-2.38;96.89;102838.19;2011831;29;20064;-59
2022/02/28 02:12:56;;;;;;;6.37;3.77;;;;;;;-2.35;97.35;102846.88;2011764;29;20545;-59
2022/02/28 02:13:58;;;;;;;5.90;2.75;;;;;;;-2.36;97.86;102840.00;2011770;29;20108;-59
2022/02/28 02:14:59;;;;;;;7.15;3.35;;;;;;;-2.37;97.83;102837.38;2011776;29;20029;-59
2022/02/28 02:16:00;;;;;;;7.95;3.65;;;;;;;-2.38;97.90;102843.31;2011752;29;20033;-60
2022/02/28 02:17:00;;;;;;;7.30;3.90;;;;;;;-2.41;97.98;102832.94;2011804;29;20033;-59
2022/02/28 02:18:04;;;;;;;5.83;3.73;;;;;;;-2.44;97.88;102836.25;2011730;29;20036;-59
2022/02/28 02:19:04;;;;;;;6.10;3.50;;;;;;;-2.48;98.24;102840.34;2011746;29;20085;-60
2022/02/28 02:20:07;;;;;;;10.40;4.13;;;;;;;-2.52;98.37;102847.81;2011747;29;20487;-59
2022/02/28 02:21:07;;;;;;;7.43;3.95;;;;;;;-2.55;98.42;102848.56;2011739;29;20045;-59
2022/02/28 02:22:07;;;;;;;5.13;3.23;;;;;;;-2.53;99.30;102838.41;2011793;29;20088;-59
2022/02/28 02:23:13;;;;;;;7.40;3.43;;;;;;;-2.51;99.29;102839.31;2011757;29;20057;-59
2022/02/28 02:24:14;;;;;;;7.18;3.50;;;;;;;-2.49;99.00;102838.59;2018617;29;20105;-62
2022/02/28 02:25:14;;;;;;;7.90;4.20;;;;;;;-2.48;99.18;102844.59;2018815;29;20036;-58
2022/02/28 02:26:15;;;;;;;5.93;3.72;;;;;;;-2.47;99.26;102836.09;2018628;29;20028;-58
2022/02/28 02:27:16;;;;;;;7.93;3.83;;;;;;;-2.47;98.58;102846.31;2018757;29;20025;-58
2022/02/28 02:28:19;;;;;;;9.02;3.35;;;;;;;-2.53;98.55;102846.06;2011668;29;20086;-58
2022/02/28 02:29:19;;;;;;;7.93;4.03;;;;;;;-2.60;98.44;102845.78;2011624;29;20029;-58
2022/02/28 02:30:23;;;;;;;7.97;3.87;;;;;;;-2.64;99.17;102843.91;2011576;29;20057;-58
2022/02/28 02:31:23;;;;;;;6.72;3.75;;;;;;;-2.68;98.62;102847.13;2010928;29;20022;-59
2022/02/28 02:32:24;;;;;;;7.43;3.53;;;;;;;-2.73;98.77;102840.94;2011024;29;20048;-58
2022/02/28 02:33:24;;;;;;;8.37;4.00;;;;;;;-2.75;99.37;102845.09;2011585;29;20480;-58
2022/02/28 02:34:25;;;;;;;6.43;3.80;;;;;;;-2.79;99.03;102840.66;2011578;29;20037;-58
2022/02/28 02:35:25;;;;;;;6.90;3.63;;;;;;;-2.82;99.70;102836.28;2011555;29;20116;-59
2022/02/28 02:36:25;;;;;;;6.43;3.27;;;;;;;-2.83;99.32;102842.19;2011522;29;20033;-58
2022/02/28 02:37:26;;;;;;;6.73;4.23;;;;;;;-2.85;99.60;102834.47;2011520;29;20081;-59
2022/02/28 02:38:27;;;;;;;7.53;3.77;;;;;;;-2.79;100.00;102841.53;2011592;29;20502;-58
2022/02/28 02:39:27;;;;;;;7.00;4.00;;;;;;;-2.68;100.00;102841.13;2011627;29;20093;-59
2022/02/28 02:40:28;;;;;;;9.97;4.27;;;;;;;-2.61;100.00;102833.81;2011549;29;20445;-59
2022/02/28 02:41:29;;;;;;;10.17;4.47;;;;;;;-2.43;100.00;102827.75;2011495;29;20030;-57
2022/02/28 02:42:29;;;;;;;9.18;4.20;;;;;;;-2.34;100.00;102832.41;2011507;29;20026;-58
2022/02/28 02:43:29;;;;;;;7.93;4.07;;;;;;;-2.29;100.00;102836.03;2011529;29;20033;-58
2022/02/28 02:44:31;;;;;;;8.87;4.17;;;;;;;-2.28;99.79;102831.78;2011521;29;20087;-58
2022/02/28 02:45:31;;;;;;;5.85;3.58;;;;;;;-2.30;99.30;102830.88;2011434;29;20579;-58
2022/02/28 02:46:31;;;;;;;5.70;4.10;;;;;;;-2.36;98.86;102831.47;2018517;29;20044;-58
2022/02/28 02:47:32;;;;;;;5.50;3.43;;;;;;;-2.40;98.29;102824.47;2018634;29;20028;-58
2022/02/28 02:48:32;;;;;;;5.97;3.17;;;;;;;-2.41;98.81;102821.03;2011289;29;20057;-58
2022/02/28 02:49:32;;;;;;;7.60;3.23;;;;;;;-2.33;98.68;102829.91;2011513;29;20025;-59
2022/02/28 02:50:33;;;;;;;6.17;3.43;;;;;;;-2.25;98.74;102821.69;2011505;29;20029;-59
2022/02/28 02:51:33;;;;;;;8.47;4.07;;;;;;;-2.21;98.61;102828.69;2011465;29;20021;-58
2022/02/28 02:52:34;;;;;;;8.70;3.70;;;;;;;-2.21;98.32;102823.56;2011500;29;20032;-58
2022/02/28 02:53:34;;;;;;;7.10;4.30;;;;;;;-2.14;97.79;102820.47;2011589;29;20034;-58
2022/02/28 02:54:34;;;;;;;5.80;3.47;;;;;;;-2.12;97.69;102821.41;2011464;29;20028;-58
2022/02/28 02:55:35;;;;;;;5.47;3.93;;;;;;;-2.08;97.29;102819.88;2011421;29;20077;-58
2022/02/28 02:56:38;;;;;;;4.67;3.40;;;;;;;-2.04;96.97;102810.63;2011383;29;20510;-58
2022/02/28 02:57:38;;;;;;;5.40;3.83;;;;;;;-2.02;96.74;102819.25;2011377;29;20108;-58
2022/02/28 02:58:38;;;;;;;5.37;3.30;;;;;;;-2.03;96.05;102820.03;2011419;29;20498;-58
2022/02/28 02:59:39;;;;;;;8.87;3.87;;;;;;;-1.98;96.34;102821.13;2011348;29;20021;-59
2022/02/28 03:00:45;;;;;;;9.63;4.50;;;;;;;-1.83;96.02;102821.75;2011342;29;20033;-58
2022/02/28 03:01:45;;;;;;;6.05;3.90;;;;;;;-1.74;94.81;102815.25;2011331;29;20040;-58
2022/02/28 03:02:45;;;;;;;8.13;4.57;;;;;;;-1.60;94.14;102816.72;2011367;29;20072;-60
2022/02/28 03:03:45;;;;;;;6.40;3.80;;;;;;;-1.49;93.10;102816.25;2011343;29;20032;-58
2022/02/28 03:04:46;;;;;;;9.47;4.53;;;;;;;-1.50;92.44;102814.50;2011313;29;20086;-59
2022/02/28 03:05:46;;;;;;;7.73;3.40;;;;;;;-1.57;92.40;102814.25;2011385;29;20037;-58
2022/02/28 03:06:47;;;;;;;5.57;4.03;;;;;;;-1.60;92.31;102814.16;2011285;29;20029;-58
2022/02/28 03:07:48;;;;;;;6.83;3.87;;;;;;;-1.65;92.57;102819.91;2011412;29;20021;-59
2022/02/28 03:08:48;;;;;;;4.85;3.13;;;;;;;-1.72;92.39;102813.63;2018351;29;20025;-58
2022/02/28 03:09:48;;;;;;;6.87;3.80;;;;;;;-1.82;92.58;102820.06;2010646;29;20037;-59
2022/02/28 03:10:48;;;;;;;7.60;3.53;;;;;;;-1.78;93.35;102821.06;2010699;29;20029;-59
2022/02/28 03:11:49;;;;;;;5.43;2.90;;;;;;;-1.73;93.27;102822.13;2011280;29;20032;-59
2022/02/28 03:12:49;;;;;;;7.07;4.00;;;;;;;-1.69;93.07;102818.88;2011199;29;20049;-57
2022/02/28 03:13:49;;;;;;;7.30;4.40;;;;;;;-1.62;93.07;102820.88;2010641;29;20065;-58
2022/02/28 03:14:49;;;;;;;8.10;3.57;;;;;;;-1.62;92.77;102820.00;2010738;29;20037;-58
2022/02/28 03:15:50;;;;;;;6.80;3.10;;;;;;;-1.64;92.97;102822.50;2011267;29;20399;-58
2022/02/28 03:16:50;;;;;;;8.77;4.57;;;;;;;-1.58;92.98;102816.75;2011228;29;20517;-58
2022/02/28 03:17:50;;;;;;;7.03;3.73;;;;;;;-1.50;92.05;102817.94;2011215;29;20029;-58
2022/02/28 03:18:51;;;;;;;7.53;3.47;;;;;;;-1.27;90.98;102819.66;2011261;29;20089;-58
2022/02/28 03:19:51;;;;;;;7.80;3.43;;;;;;;-1.23;90.03;102818.97;2011266;29;20361;-58
2022/02/28 03:20:51;;;;;;;8.73;4.27;;;;;;;-1.34;90.22;102821.97;2010541;29;20608;-58
2022/02/28 03:21:51;;;;;;;7.40;3.77;;;;;;;-1.44;90.03;102815.59;2011228;29;20038;-58
2022/02/28 03:22:52;;;;;;;6.83;4.17;;;;;;;-1.53;90.61;102820.38;2011232;29;20100;-58
2022/02/28 03:23:52;;;;;;;6.43;3.47;;;;;;;-1.64;90.54;102816.50;2011234;29;20509;-59
2022/02/28 03:24:53;;;;;;;7.77;3.90;;;;;;;-1.63;91.71;102818.25;2018180;29;20081;-57
2022/02/28 03:25:54;;;;;;;6.80;3.83;;;;;;;-1.60;91.84;102819.25;2018352;29;20399;-57
2022/02/28 03:26:54;;;;;;;5.40;3.25;;;;;;;-1.61;91.66;102819.19;2011155;29;20452;-59
2022/02/28 03:27:54;;;;;;;8.50;3.60;;;;;;;-1.46;91.59;102816.38;2011263;29;20154;-58
2022/02/28 03:28:55;;;;;;;7.07;3.93;;;;;;;-1.36;90.96;102809.91;2011277;29;20038;-58
2022/02/28 03:29:55;;;;;;;5.67;3.93;;;;;;;-1.38;90.58;102811.53;2010546;29;20072;-59
2022/02/28 03:30:55;;;;;;;8.80;3.67;;;;;;;-1.46;90.32;102811.25;2010616;29;20431;-59
2022/02/28 03:31:56;;;;;;;5.80;3.70;;;;;;;-1.56;90.64;102816.00;2011179;29;20029;-58
2022/02/28 03:32:56;;;;;;;10.40;4.05;;;;;;;-1.66;91.20;102808.75;2011189;29;20480;-59
2022/02/28 03:33:56;;;;;;;6.20;4.03;;;;;;;-1.71;91.62;102815.41;2011147;29;20033;-58
2022/02/28 03:34:57;;;;;;;6.40;3.20;;;;;;;-1.79;91.87;102816.78;2011161;29;20038;-58
2022/02/28 03:35:57;;;;;;;5.73;3.40;;;;;;;-1.88;91.57;102813.00;2011170;29;20041;-58
2022/02/28 03:36:57;;;;;;;10.07;4.50;;;;;;;-1.94;92.26;102817.88;2018111;29;20086;-58
2022/02/28 03:37:58;;;;;;;7.13;3.67;;;;;;;-1.87;93.04;102814.75;2018204;29;20430;-58
2022/02/28 03:38:58;;;;;;;6.20;3.70;;;;;;;-1.86;92.74;102816.50;2011210;29;20037;-58
2022/02/28 03:39:58;;;;;;;6.13;3.27;;;;;;;-1.87;92.78;102814.75;2011173;29;20108;-58
2022/02/28 03:40:58;;;;;;;6.47;3.80;;;;;;;-1.90;92.77;102812.06;2011038;29;20037;-59
2022/02/28 03:41:59;;;;;;;6.90;3.90;;;;;;;-1.95;92.74;102818.69;2011139;29;20050;-59
2022/02/28 03:43:01;;;;;;;5.47;4.20;;;;;;;-2.03;92.87;102818.34;2010448;29;20372;-58
2022/02/28 03:44:02;;;;;;;5.50;3.30;;;;;;;-2.09;92.75;102813.84;2010413;29;20030;-58
2022/02/28 03:45:02;;;;;;;6.93;3.53;;;;;;;-2.12;93.17;102818.84;2011091;29;20552;-58
2022/02/28 03:46:03;;;;;;;6.05;3.38;;;;;;;-2.10;93.72;102827.47;2011136;29;20057;-57
2022/02/28 03:47:03;;;;;;;5.53;3.47;;;;;;;-2.09;94.16;102826.66;2011116;29;20085;-59
2022/02/28 03:48:04;;;;;;;6.30;3.30;;;;;;;-2.09;93.86;102834.31;2010939;29;20082;-58
2022/02/28 03:49:04;;;;;;;6.45;3.30;;;;;;;-2.11;93.11;102830.84;2010970;29;20476;-58
2022/02/28 03:50:05;;;;;;;7.80;4.00;;;;;;;-2.09;93.97;102826.66;2011045;29;20026;-59
2022/02/28 03:51:07;;;;;;;7.05;3.88;;;;;;;-1.98;93.71;102824.53;2011044;29;20029;-58
2022/02/28 03:52:07;;;;;;;7.80;3.45;;;;;;;-1.96;93.84;102822.03;2010996;29;20049;-58
2022/02/28 03:53:08;;;;;;;9.65;4.93;;;;;;;-1.86;93.65;102825.84;2011008;29;20141;-58
2022/02/28 03:54:11;;;;;;;5.53;3.67;;;;;;;-1.89;92.86;102821.50;2011020;29;20108;-58
2022/02/28 03:55:11;;;;;;;5.82;4.28;;;;;;;-2.01;92.50;102818.44;2011039;29;20112;-58
2022/02/28 03:56:12;;;;;;;7.70;4.17;;;;;;;-2.13;92.92;102826.44;2011018;29;20029;-58
2022/02/28 03:57:12;;;;;;;7.82;3.28;;;;;;;-2.26;92.95;102822.50;2011000;29;20025;-58
2022/02/28 03:58:12;;;;;;;7.03;3.30;;;;;;;-2.28;93.28;102827.56;2011033;29;20109;-58
2022/02/28 03:59:13;;;;;;;8.20;3.63;;;;;;;-2.27;94.04;102818.19;2010995;29;20087;-58
2022/02/28 04:00:14;;;;;;;6.63;3.55;;;;;;;-2.31;94.48;102822.31;2010953;29;20037;-57
2022/02/28 04:01:14;;;;;;;7.15;3.58;;;;;;;-2.40;93.74;102822.78;2010816;29;20436;-59
2022/02/28 04:02:15;;;;;;;7.93;3.93;;;;;;;-2.44;94.38;102825.16;2010301;29;20053;-58
2022/02/28 04:03:15;;;;;;;3.63;3.03;;;;;;;-2.42;95.39;102818.41;2010384;29;20427;-58
2022/02/28 04:04:16;;;;;;;6.40;3.33;;;;;;;-2.43;95.58;102812.41;2010965;29;20044;-58
2022/02/28 04:05:17;;;;;;;6.28;3.30;;;;;;;-2.48;95.60;102819.00;2010908;29;20165;-59
2022/02/28 04:06:17;;;;;;;7.60;3.80;;;;;;;-2.53;96.08;102810.28;2010957;29;20072;-58
2022/02/28 04:07:18;;;;;;;5.97;3.87;;;;;;;-2.55;96.26;102817.00;2018033;29;20035;-59
2022/02/28 04:08:18;;;;;;;6.73;3.73;;;;;;;-2.56;95.98;102810.13;2017988;29;20032;-58
2022/02/28 04:09:18;;;;;;;5.30;3.70;;;;;;;-2.66;96.13;102802.06;2010928;29;20074;-59
2022/02/28 04:10:18;;;;;;;5.73;3.53;;;;;;;-2.73;95.68;102812.81;2010960;29;20030;-58
2022/02/28 04:11:19;;;;;;;5.60;4.30;;;;;;;-2.76;95.87;102812.69;2010834;29;20032;-58
2022/02/28 04:12:19;;;;;;;6.10;3.27;;;;;;;-2.77;96.57;102816.03;2010856;29;20037;-58
2022/02/28 04:13:19;;;;;;;6.20;3.53;;;;;;;-2.77;96.50;102822.00;2010823;29;20388;-58
2022/02/28 04:14:20;;;;;;;6.97;2.93;;;;;;;-2.74;97.56;102813.63;2010869;29;20028;-58
2022/02/28 04:15:20;;;;;;;7.33;4.00;;;;;;;-2.68;97.45;102816.44;2010809;29;20030;-57
2022/02/28 04:16:20;;;;;;;7.07;3.70;;;;;;;-2.69;97.21;102822.38;2010796;29;20032;-57
2022/02/28 04:17:20;;;;;;;5.97;3.17;;;;;;;-2.71;97.17;102816.31;2010805;29;20030;-58
2022/02/28 04:18:21;;;;;;;7.47;3.43;;;;;;;-2.73;96.89;102817.94;2010817;29;20064;-58
2022/02/28 04:19:21;;;;;;;6.67;4.30;;;;;;;-2.74;97.44;102819.59;2010861;29;20456;-58
2022/02/28 04:20:22;;;;;;;5.60;3.43;;;;;;;-2.76;97.32;102822.91;2010819;29;20112;-57
2022/02/28 04:21:22;;;;;;;10.73;4.17;;;;;;;-2.82;97.20;102823.50;2010704;29;20065;-58
2022/02/28 04:22:23;;;;;;;7.53;3.97;;;;;;;-2.88;97.08;102818.97;2010801;29;20029;-58
2022/02/28 04:23:23;;;;;;;6.68;4.30;;;;;;;-2.93;97.02;102820.47;2010709;29;20860;-57
2022/02/28 04:24:24;;;;;;;9.18;4.10;;;;;;;-2.88;97.93;102807.88;2010788;29;20140;-58
2022/02/28 04:25:24;;;;;;;7.00;3.70;;;;;;;-2.92;97.64;102811.09;2010732;29;20060;-57
2022/02/28 04:26:24;;;;;;;6.93;3.13;;;;;;;-2.98;97.32;102807.47;2010778;29;20403;-57
2022/02/28 04:27:25;;;;;;;8.10;4.10;;;;;;;-3.03;97.76;102810.63;2010760;29;20037;-58
2022/02/28 04:28:25;;;;;;;6.93;3.83;;;;;;;-3.08;97.75;102805.28;2010818;29;20033;-59
2022/02/28 04:29:26;;;;;;;4.23;3.17;;;;;;;-3.09;98.50;102812.91;2010733;29;20060;-57
2022/02/28 04:30:26;;;;;;;5.90;4.13;;;;;;;-3.14;98.73;102807.56;2010738;29;20025;-57
2022/02/28 04:31:26;;;;;;;6.77;3.63;;;;;;;-3.17;98.56;102803.19;2010764;29;20037;-57
2022/02/28 04:32:27;;;;;;;5.77;3.03;;;;;;;-3.14;98.84;102807.56;2009939;29;20041;-57
2022/02/28 04:33:27;;;;;;;7.30;3.60;;;;;;;-3.12;99.19;102798.28;2010727;29;20034;-57
2022/02/28 04:34:27;;;;;;;7.53;3.80;;;;;;;-3.15;98.78;102799.03;2010714;29;20105;-57
2022/02/28 04:35:27;;;;;;;11.63;4.43;;;;;;;-3.16;99.34;102806.59;2017726;29;20471;-57
2022/02/28 04:36:28;;;;;;;6.47;3.87;;;;;;;-3.22;98.96;102804.66;2017855;29;20025;-57
2022/02/28 04:37:28;;;;;;;7.20;3.50;;;;;;;-3.22;99.60;102806.34;2010609;29;20036;-57
2022/02/28 04:38:29;;;;;;;7.10;3.88;;;;;;;-3.21;99.86;102808.97;2010680;29;20104;-57
2022/02/28 04:39:29;;;;;;;7.10;3.80;;;;;;;-3.25;99.99;102807.09;2010684;29;20040;-57
2022/02/28 04:40:29;;;;;;;7.27;4.33;;;;;;;-3.29;100.00;102800.94;2010705;29;20072;-58
2022/02/28 04:41:30;;;;;;;7.50;4.17;;;;;;;-3.31;99.74;102802.56;2010480;29;20040;-57